createdAt,value
2022-09-10T00:01:49.258Z,19.62
2022-09-10T00:04:17.318Z,19.58
2022-09-10T00:06:44.748Z,19.55
2022-09-10T00:09:12.951Z,19.55
2022-09-10T00:11:40.676Z,19.59
2022-09-10T00:14:11.540Z,19.69
2022-09-10T00:16:38.218Z,19.72
2022-09-10T00:19:05.049Z,19.71
2022-09-10T00:21:31.765Z,19.63
2022-09-10T00:23:58.694Z,19.58
2022-09-10T00:26:28.250Z,19.62
2022-09-10T00:28:56.936Z,19.19
2022-09-10T00:31:24.686Z,19.00
2022-09-10T00:33:51.936Z,19.13
2022-09-10T00:36:25.667Z,19.14
2022-09-10T00:38:54.221Z,19.27
2022-09-10T00:41:23.287Z,19.31
2022-09-10T00:44:05.562Z,19.38
2022-09-10T00:46:49.032Z,19.11
2022-09-10T00:49:19.807Z,19.40
2022-09-10T00:51:48.458Z,19.45
2022-09-10T00:54:18.185Z,19.50
2022-09-10T00:56:45.408Z,19.48
2022-09-10T00:59:16.906Z,19.42
2022-09-10T01:01:43.819Z,19.42
2022-09-10T01:04:10.903Z,19.37
2022-09-10T01:06:44.666Z,19.42
2022-09-10T01:09:13.319Z,19.08
2022-09-10T01:12:00.146Z,19.10
2022-09-10T01:14:50.111Z,19.10
2022-09-10T01:17:58.722Z,19.14
2022-09-10T01:20:46.163Z,19.22
2022-09-10T01:23:31.228Z,19.31
2022-09-10T01:26:15.620Z,19.22
2022-09-10T01:28:51.962Z,19.19
2022-09-10T01:31:47.814Z,19.24
2022-09-10T01:34:23.544Z,19.22
2022-09-10T01:36:53.871Z,19.35
2022-09-10T01:39:21.967Z,19.53
2022-09-10T01:41:48.821Z,19.08
2022-09-10T01:44:39.999Z,19.14
2022-09-10T01:47:45.538Z,19.15
2022-09-10T01:50:34.111Z,19.15
2022-09-10T01:53:21.800Z,19.11
2022-09-10T01:55:51.335Z,19.13
2022-09-10T01:58:36.114Z,18.46
2022-09-10T02:01:02.708Z,18.20
2022-09-10T02:03:31.875Z,18.08
2022-09-10T02:06:00.472Z,17.92
2022-09-10T02:08:31.356Z,18.34
2022-09-10T02:11:00.697Z,18.06
2022-09-10T02:13:30.827Z,18.40
2022-09-10T02:15:57.562Z,18.42
2022-09-10T02:18:25.845Z,18.41
2022-09-10T02:20:55.224Z,18.38
2022-09-10T02:23:26.482Z,18.73
2022-09-10T02:25:53.129Z,18.71
2022-09-10T02:28:20.496Z,18.79
2022-09-10T02:30:47.113Z,18.39
2022-09-10T02:33:13.999Z,18.33
2022-09-10T02:35:40.585Z,18.46
2022-09-10T02:38:07.510Z,18.23
2022-09-10T02:40:34.771Z,17.54
2022-09-10T02:43:01.369Z,17.29
2022-09-10T02:45:28.025Z,17.01
2022-09-10T02:47:54.707Z,16.97
2022-09-10T02:50:21.277Z,16.88
2022-09-10T02:52:47.901Z,16.99
2022-09-10T02:55:14.488Z,16.92
2022-09-10T02:57:41.097Z,16.84
2022-09-10T03:00:08.814Z,16.97
2022-09-10T03:02:35.418Z,16.63
2022-09-10T03:05:02.211Z,16.62
2022-09-10T03:07:28.833Z,16.47
2022-09-10T03:09:55.448Z,16.22
2022-09-10T03:12:22.030Z,16.33
2022-09-10T03:14:48.634Z,16.22
2022-09-10T03:17:15.368Z,16.61
2022-09-10T03:19:41.931Z,16.66
2022-09-10T03:22:09.028Z,16.76
2022-09-10T03:24:35.594Z,16.64
2022-09-10T03:27:02.150Z,16.57
2022-09-10T03:29:28.849Z,16.77
2022-09-10T03:31:55.756Z,16.51
2022-09-10T03:34:22.322Z,16.76
2022-09-10T03:36:48.983Z,17.01
2022-09-10T03:39:15.844Z,16.94
2022-09-10T03:41:42.654Z,16.99
2022-09-10T03:44:09.241Z,16.70
2022-09-10T03:46:35.831Z,16.70
2022-09-10T03:49:02.541Z,16.87
2022-09-10T03:51:29.512Z,16.96
2022-09-10T03:53:56.101Z,16.80
2022-09-10T03:56:23.064Z,16.44
2022-09-10T03:58:49.658Z,16.38
2022-09-10T04:01:17.139Z,15.94
2022-09-10T04:03:44.121Z,15.75
2022-09-10T04:06:15.324Z,15.77
2022-09-10T04:08:42.613Z,15.76
2022-09-10T04:11:09.867Z,15.55
2022-09-10T04:13:36.461Z,15.83
2022-09-10T04:16:03.165Z,15.72
2022-09-10T04:18:29.893Z,15.66
2022-09-10T04:20:56.473Z,15.46
2022-09-10T04:23:23.113Z,15.41
2022-09-10T04:25:49.851Z,15.21
2022-09-10T04:28:16.644Z,15.22
2022-09-10T04:30:44.282Z,15.14
2022-09-10T04:33:11.194Z,15.46
2022-09-10T04:35:38.590Z,15.36
2022-09-10T04:38:05.987Z,15.44
2022-09-10T04:40:32.538Z,15.30
2022-09-10T04:42:59.124Z,15.57
2022-09-10T04:45:25.777Z,15.73
2022-09-10T04:47:52.623Z,15.48
2022-09-10T04:50:19.208Z,15.66
2022-09-10T04:52:45.849Z,15.53
2022-09-10T04:55:12.429Z,15.68
2022-09-10T04:57:39.052Z,15.69
2022-09-10T05:00:06.816Z,15.71
2022-09-10T05:02:33.615Z,15.58
2022-09-10T05:05:00.316Z,15.47
2022-09-10T05:07:26.942Z,15.96
2022-09-10T05:09:53.688Z,15.54
2022-09-10T05:12:20.277Z,15.59
2022-09-10T05:14:46.854Z,15.59
2022-09-10T05:17:13.515Z,15.51
2022-09-10T05:19:40.079Z,15.52
2022-09-10T05:22:07.666Z,15.33
2022-09-10T05:24:34.272Z,15.54
2022-09-10T05:27:00.846Z,15.56
2022-09-10T05:29:27.614Z,15.33
2022-09-10T05:31:54.227Z,15.34
2022-09-10T05:34:20.854Z,15.35
2022-09-10T05:36:47.482Z,15.29
2022-09-10T05:39:14.104Z,15.37
2022-09-10T05:41:40.664Z,15.27
2022-09-10T05:44:07.224Z,15.35
2022-09-10T05:46:33.801Z,15.29
2022-09-10T05:49:00.400Z,15.28
2022-09-10T05:51:27.206Z,15.35
2022-09-10T05:53:53.798Z,15.53
2022-09-10T05:56:20.457Z,15.50
2022-09-10T05:58:47.085Z,15.56
2022-09-10T06:01:13.665Z,15.71
2022-09-10T06:03:40.265Z,15.89
2022-09-10T06:06:07.354Z,15.81
2022-09-10T06:08:34.697Z,15.82
2022-09-10T06:11:04.405Z,15.92
2022-09-10T06:13:32.400Z,15.90
2022-09-10T06:15:59.223Z,16.00
2022-09-10T06:18:25.988Z,16.32
2022-09-10T06:21:11.983Z,16.22
2022-09-10T06:23:38.591Z,16.26
2022-09-10T06:26:07.846Z,16.37
2022-09-10T06:28:35.116Z,16.24
2022-09-10T06:31:02.004Z,16.06
2022-09-10T06:33:28.621Z,16.00
2022-09-10T06:35:56.905Z,16.15
2022-09-10T06:38:24.014Z,16.38
2022-09-10T06:40:54.610Z,16.39
2022-09-10T06:43:22.611Z,16.33
2022-09-10T06:45:58.355Z,16.32
2022-09-10T06:48:38.685Z,16.59
2022-09-10T06:51:09.276Z,16.58
2022-09-10T06:53:37.201Z,16.76
2022-09-10T06:56:05.412Z,16.73
2022-09-10T06:58:33.130Z,16.46
2022-09-10T07:01:11.922Z,16.38
2022-09-10T07:03:38.513Z,16.74
2022-09-10T07:06:10.680Z,16.50
2022-09-10T07:08:37.481Z,16.50
2022-09-10T07:11:06.531Z,16.35
2022-09-10T07:13:35.299Z,16.35
2022-09-10T07:16:02.078Z,16.40
2022-09-10T07:18:28.742Z,16.30
2022-09-10T07:21:12.961Z,16.27
2022-09-10T07:23:40.019Z,16.31
2022-09-10T07:26:12.948Z,16.29
2022-09-10T07:28:40.934Z,16.29
2022-09-10T07:31:19.506Z,16.38
2022-09-10T07:33:46.552Z,16.50
2022-09-10T07:36:14.468Z,16.44
2022-09-10T07:38:42.065Z,16.32
2022-09-10T07:41:11.605Z,16.21
2022-09-10T07:43:39.536Z,16.26
2022-09-10T07:46:07.014Z,16.21
2022-09-10T07:48:33.771Z,15.97
2022-09-10T07:51:05.527Z,15.89
2022-09-10T07:53:32.339Z,15.92
2022-09-10T07:56:03.563Z,15.83
2022-09-10T07:58:31.577Z,16.21
2022-09-10T08:01:01.692Z,16.23
2022-09-10T08:03:29.519Z,16.25
2022-09-10T08:06:01.058Z,16.09
2022-09-10T08:08:31.769Z,16.08
2022-09-10T08:11:12.071Z,16.02
2022-09-10T08:13:44.447Z,16.30
2022-09-10T08:16:13.914Z,16.13
2022-09-10T08:18:41.279Z,16.39
2022-09-10T08:21:08.174Z,16.59
2022-09-10T08:23:35.577Z,16.66
2022-09-10T08:26:02.146Z,16.45
2022-09-10T08:28:28.741Z,16.94
2022-09-10T08:31:08.963Z,17.50
2022-09-10T08:33:36.605Z,17.26
2022-09-10T08:36:05.134Z,16.86
2022-09-10T08:38:36.952Z,17.08
2022-09-10T08:41:45.077Z,16.94
2022-09-10T08:44:31.044Z,16.65
2022-09-10T08:47:06.704Z,16.74
2022-09-10T08:49:48.525Z,16.60
2022-09-10T08:52:15.038Z,16.78
2022-09-10T08:54:54.099Z,16.82
2022-09-10T08:57:32.325Z,16.99
2022-09-10T09:00:01.948Z,17.14
2022-09-10T09:02:50.298Z,17.04
2022-09-10T09:05:22.929Z,17.26
2022-09-10T09:07:51.396Z,17.42
2022-09-10T09:10:47.158Z,17.66
2022-09-10T09:13:26.029Z,17.99
2022-09-10T09:16:24.868Z,18.06
2022-09-10T09:19:22.122Z,18.30
2022-09-10T09:21:51.978Z,18.11
2022-09-10T09:24:42.719Z,18.21
2022-09-10T09:27:16.213Z,18.20
2022-09-10T09:29:54.727Z,18.10
2022-09-10T09:32:22.569Z,18.22
2022-09-10T09:35:13.807Z,18.37
2022-09-10T09:37:42.199Z,18.78
2022-09-10T09:40:22.283Z,18.71
2022-09-10T09:43:19.595Z,18.51
2022-09-10T09:45:46.267Z,18.83
2022-09-10T09:48:16.211Z,19.24
2022-09-10T09:50:45.867Z,19.04
2022-09-10T09:53:26.197Z,18.75
2022-09-10T09:55:58.812Z,18.86
2022-09-10T09:58:25.340Z,18.70
2022-09-10T10:01:04.313Z,18.82
2022-09-10T10:03:58.286Z,19.23
2022-09-10T10:06:31.531Z,18.96
2022-09-10T10:09:01.907Z,19.71
2022-09-10T10:11:59.454Z,20.00
2022-09-10T10:14:31.718Z,19.87
2022-09-10T10:17:00.895Z,20.02
2022-09-10T10:19:33.740Z,20.18
2022-09-10T10:22:15.494Z,20.01
2022-09-10T10:24:42.896Z,19.90
2022-09-10T10:27:20.102Z,19.86
2022-09-10T10:30:16.739Z,19.72
2022-09-10T10:32:49.791Z,20.03
2022-09-10T10:36:01.216Z,20.17
2022-09-10T10:38:34.502Z,19.98
2022-09-10T10:41:19.494Z,20.07
2022-09-10T10:44:13.381Z,19.89
2022-09-10T10:46:58.461Z,20.01
2022-09-10T10:49:35.665Z,19.87
2022-09-10T10:52:02.194Z,20.02
2022-09-10T10:55:03.507Z,20.48
2022-09-10T10:57:49.199Z,20.90
2022-09-10T11:00:19.127Z,21.42
2022-09-10T11:03:02.862Z,21.34
2022-09-10T11:05:46.801Z,21.67
2022-09-10T11:08:50.212Z,21.89
2022-09-10T11:11:22.369Z,21.61
2022-09-10T11:14:25.007Z,21.53
2022-09-10T11:17:14.617Z,21.59
2022-09-10T11:20:17.174Z,21.58
2022-09-10T11:22:48.496Z,21.75
2022-09-10T11:25:27.027Z,21.33
2022-09-10T11:28:20.152Z,21.46
2022-09-10T11:30:55.245Z,22.04
2022-09-10T11:33:44.659Z,22.19
2022-09-10T11:36:22.290Z,22.09
2022-09-10T11:39:25.507Z,22.24
2022-09-10T11:41:54.600Z,22.56
2022-09-10T11:44:44.848Z,22.66
2022-09-10T11:47:32.771Z,22.78
2022-09-10T11:50:30.000Z,22.57
2022-09-10T11:53:00.955Z,22.42
2022-09-10T11:55:40.578Z,22.40
2022-09-10T11:58:46.001Z,22.36
2022-09-10T12:01:31.113Z,22.44
2022-09-10T12:04:29.295Z,22.64
2022-09-10T12:06:59.022Z,22.71
2022-09-10T12:09:51.674Z,22.68
2022-09-10T12:12:27.580Z,22.77
2022-09-10T12:14:54.275Z,22.99
2022-09-10T12:17:34.428Z,22.87
2022-09-10T12:20:04.776Z,22.97
2022-09-10T12:22:31.339Z,22.92
2022-09-10T12:25:25.884Z,22.90
2022-09-10T12:27:58.396Z,23.01
2022-09-10T12:30:24.917Z,23.21
2022-09-10T12:32:52.265Z,23.28
2022-09-10T12:35:31.116Z,23.00
2022-09-10T12:38:35.382Z,22.90
2022-09-10T12:41:03.270Z,23.27
2022-09-10T12:43:39.136Z,23.46
2022-09-10T12:46:08.877Z,23.31
2022-09-10T12:48:48.124Z,23.20
2022-09-10T12:51:17.662Z,23.05
2022-09-10T12:54:09.476Z,22.89
2022-09-10T12:56:39.022Z,22.98
2022-09-10T12:59:36.354Z,22.90
2022-09-10T13:02:03.881Z,23.22
2022-09-10T13:04:36.309Z,22.84
2022-09-10T13:07:24.201Z,23.18
2022-09-10T13:10:21.732Z,23.45
2022-09-10T13:12:53.731Z,23.28
2022-09-10T13:15:23.431Z,23.39
2022-09-10T13:17:49.995Z,23.36
2022-09-10T13:20:19.290Z,23.44
2022-09-10T13:23:01.729Z,23.67
2022-09-10T13:25:45.969Z,23.31
2022-09-10T13:28:41.597Z,22.94
2022-09-10T13:31:08.265Z,23.22
2022-09-10T13:33:49.761Z,23.10
2022-09-10T13:36:25.141Z,23.36
2022-09-10T13:39:15.000Z,23.31
2022-09-10T13:41:59.977Z,23.40
2022-09-10T13:45:05.305Z,23.18
2022-09-10T13:47:47.884Z,23.16
2022-09-10T13:50:18.405Z,23.52
2022-09-10T13:52:49.760Z,23.26
2022-09-10T13:55:20.504Z,22.49
2022-09-10T13:57:50.322Z,22.71
2022-09-10T14:00:23.968Z,22.73
2022-09-10T14:02:54.213Z,22.49
2022-09-10T14:05:51.891Z,22.43
2022-09-10T14:08:18.398Z,22.80
2022-09-10T14:10:59.878Z,22.69
2022-09-10T14:13:47.390Z,22.92
2022-09-10T14:16:30.123Z,23.12
2022-09-10T14:19:01.500Z,23.34
2022-09-10T14:21:28.736Z,23.35
2022-09-10T14:23:57.922Z,23.32
2022-09-10T14:26:30.035Z,23.11
2022-09-10T14:29:24.940Z,23.11
2022-09-10T14:31:51.567Z,23.13
2022-09-10T14:34:30.740Z,23.22
2022-09-10T14:36:57.744Z,22.85
2022-09-10T14:39:25.211Z,22.94
2022-09-10T14:42:09.495Z,23.24
2022-09-10T14:44:41.137Z,23.31
2022-09-10T14:47:10.467Z,23.16
2022-09-10T14:49:39.467Z,22.98
2022-09-10T14:52:06.459Z,23.10
2022-09-10T14:54:34.491Z,22.88
2022-09-10T14:57:07.318Z,23.07
2022-09-10T14:59:36.465Z,22.96
2022-09-10T15:02:14.182Z,22.50
2022-09-10T15:04:40.819Z,22.35
2022-09-10T15:07:09.808Z,22.36
2022-09-10T15:09:36.402Z,22.42
2022-09-10T15:12:27.856Z,22.55
2022-09-10T15:14:55.513Z,22.56
2022-09-10T15:17:22.151Z,22.48
2022-09-10T15:19:48.720Z,22.92
2022-09-10T15:22:24.162Z,23.04
2022-09-10T15:25:10.176Z,23.18
2022-09-10T15:27:37.657Z,22.50
2022-09-10T15:30:05.045Z,22.49
2022-09-10T15:32:31.658Z,22.42
2022-09-10T15:34:58.217Z,22.04
2022-09-10T15:37:24.781Z,22.12
2022-09-10T15:39:51.372Z,22.56
2022-09-10T15:42:18.143Z,22.23
2022-09-10T15:44:44.709Z,22.12
2022-09-10T15:47:11.278Z,22.24
2022-09-10T15:49:37.875Z,21.90
2022-09-10T15:52:04.450Z,21.73
2022-09-10T15:54:31.051Z,21.71
2022-09-10T15:59:24.262Z,21.64
2022-09-10T16:01:50.860Z,21.59
2022-09-10T16:04:17.437Z,21.39
2022-09-10T16:06:44.026Z,21.19
2022-09-10T16:09:12.658Z,21.28
2022-09-10T16:11:41.350Z,21.24
2022-09-10T16:14:11.405Z,21.05
2022-09-10T16:16:38.677Z,21.19
2022-09-10T16:19:05.684Z,21.12
2022-09-10T16:21:35.391Z,21.08
2022-09-10T16:24:03.017Z,20.99
2022-09-10T16:26:36.195Z,21.09
2022-09-10T16:29:05.766Z,20.91
2022-09-10T16:31:37.277Z,20.94
2022-09-10T16:34:05.985Z,20.97
2022-09-10T16:36:35.285Z,20.60
2022-09-10T16:39:01.958Z,20.64
2022-09-10T16:41:29.367Z,20.45
2022-09-10T16:43:59.745Z,20.61
2022-09-10T16:46:27.972Z,20.50
2022-09-10T16:48:55.660Z,20.41
2022-09-10T16:51:24.271Z,20.45
2022-09-10T16:53:56.510Z,20.45
2022-09-10T16:56:24.904Z,20.46
2022-09-10T16:58:51.707Z,20.26
2022-09-10T17:01:18.315Z,20.25
2022-09-10T17:03:50.037Z,20.30
2022-09-10T17:06:19.396Z,20.16
2022-09-10T17:08:46.711Z,20.00
2022-09-10T17:11:15.069Z,20.27
2022-09-10T17:13:42.251Z,20.23
2022-09-10T17:16:16.171Z,19.76
2022-09-10T17:18:44.399Z,19.76
2022-09-10T17:21:10.990Z,19.74
2022-09-10T17:23:37.672Z,19.53
2022-09-10T17:26:09.034Z,19.22
2022-09-10T17:28:38.970Z,19.41
2022-09-10T17:31:07.946Z,19.49
2022-09-10T17:33:34.583Z,19.32
2022-09-10T17:36:03.642Z,19.25
2022-09-10T17:38:31.490Z,19.26
2022-09-10T17:41:00.906Z,19.33
2022-09-10T17:43:30.579Z,19.19
2022-09-10T17:45:57.375Z,19.11
2022-09-10T17:48:28.010Z,19.06
2022-09-10T17:50:55.042Z,19.14
2022-09-10T17:53:21.764Z,18.89
2022-09-10T17:55:48.356Z,19.01
2022-09-10T17:58:15.080Z,18.95
2022-09-10T18:00:44.267Z,18.97
2022-09-10T18:03:12.426Z,18.98
2022-09-10T18:05:40.163Z,18.73
2022-09-10T18:08:07.045Z,18.56
2022-09-10T18:10:34.453Z,18.63
2022-09-10T18:13:01.114Z,18.35
2022-09-10T18:15:29.127Z,18.51
2022-09-10T18:17:57.216Z,18.67
2022-09-10T18:20:27.051Z,18.52
2022-09-10T18:22:54.480Z,18.32
2022-09-10T18:25:22.055Z,18.36
2022-09-10T18:27:48.693Z,18.21
2022-09-10T18:30:15.265Z,18.22
2022-09-10T18:32:41.826Z,18.09
2022-09-10T18:35:08.694Z,17.99
2022-09-10T18:37:35.283Z,18.07
2022-09-10T18:40:02.124Z,17.97
2022-09-10T18:42:28.769Z,18.17
2022-09-10T18:44:55.370Z,17.93
2022-09-10T18:47:41.364Z,18.25
2022-09-10T18:50:08.954Z,18.20
2022-09-10T18:52:35.598Z,18.10
2022-09-10T18:55:02.154Z,17.88
2022-09-10T18:57:28.722Z,18.11
2022-09-10T18:59:55.329Z,18.11
2022-09-10T19:02:22.127Z,17.89
2022-09-10T19:05:09.704Z,18.03
2022-09-10T19:07:35.595Z,17.86
2022-09-10T19:10:02.168Z,17.85
2022-09-10T19:12:28.802Z,17.70
2022-09-10T19:14:55.374Z,17.67
2022-09-10T19:17:22.013Z,17.78
2022-09-10T19:19:48.567Z,17.66
2022-09-10T19:22:15.113Z,17.45
2022-09-10T19:24:54.650Z,17.43
2022-09-10T19:27:22.285Z,17.57
2022-09-10T19:29:48.938Z,17.52
2022-09-10T19:32:15.564Z,17.53
2022-09-10T19:34:42.158Z,17.48
2022-09-10T19:37:08.761Z,17.36
2022-09-10T19:39:35.383Z,17.24
2022-09-10T19:42:01.962Z,17.17
2022-09-10T19:44:28.680Z,17.01
2022-09-10T19:46:55.351Z,16.97
2022-09-10T19:49:21.946Z,17.11
2022-09-10T19:51:48.574Z,17.06
2022-09-10T19:54:15.156Z,17.31
2022-09-10T19:56:42.473Z,17.14
2022-09-10T19:59:09.520Z,16.93
2022-09-10T20:01:41.357Z,17.09
2022-09-10T20:04:10.204Z,17.19
2022-09-10T20:06:38.224Z,17.11
2022-09-10T20:09:06.751Z,17.02
2022-09-10T20:11:34.667Z,16.98
2022-09-10T20:14:04.066Z,17.08
2022-09-10T20:16:30.977Z,16.82
2022-09-10T20:18:57.710Z,17.06
2022-09-10T20:21:27.148Z,16.84
2022-09-10T20:23:55.663Z,16.74
2022-09-10T20:26:23.583Z,16.82
2022-09-10T20:29:05.118Z,16.98
2022-09-10T20:31:34.563Z,16.91
2022-09-10T20:34:04.111Z,16.67
2022-09-10T20:36:32.075Z,16.72
2022-09-10T20:38:58.748Z,16.73
2022-09-10T20:41:25.951Z,16.82
2022-09-10T20:43:53.511Z,16.63
2022-09-10T20:46:22.357Z,16.61
2022-09-10T20:48:50.722Z,16.55
2022-09-10T20:51:18.771Z,16.89
2022-09-10T20:53:45.598Z,16.78
2022-09-10T20:56:15.097Z,16.66
2022-09-10T20:58:42.046Z,16.72
2022-09-10T21:01:11.567Z,16.54
2022-09-10T21:03:39.875Z,16.57
2022-09-10T21:06:07.317Z,16.58
2022-09-10T21:08:34.955Z,16.51
2022-09-10T21:11:07.221Z,16.40
2022-09-10T21:13:34.995Z,16.44
2022-09-10T21:16:12.404Z,16.41
2022-09-10T21:18:39.889Z,16.57
2022-09-10T21:21:12.638Z,16.33
2022-09-10T21:23:47.117Z,16.40
2022-09-10T21:26:16.050Z,16.40
2022-09-10T21:28:42.762Z,16.35
2022-09-10T21:31:09.865Z,16.33
2022-09-10T21:33:37.205Z,16.53
2022-09-10T21:36:15.530Z,16.59
2022-09-10T21:38:46.257Z,16.64
2022-09-10T21:41:15.760Z,16.47
2022-09-10T21:43:44.261Z,16.45
2022-09-10T21:46:12.098Z,16.44
2022-09-10T21:48:38.869Z,16.71
2022-09-10T21:51:08.007Z,16.89
2022-09-10T21:53:35.383Z,17.06
2022-09-10T21:56:03.963Z,16.89
2022-09-10T21:58:33.459Z,16.36
2022-09-10T22:01:00.179Z,16.63
2022-09-10T22:03:32.277Z,16.59
2022-09-10T22:06:10.142Z,16.60
2022-09-10T22:08:39.069Z,16.87
2022-09-10T22:11:14.982Z,16.48
2022-09-10T22:13:42.910Z,16.37
2022-09-10T22:16:13.097Z,16.22
2022-09-10T22:18:39.827Z,16.27
2022-09-10T22:21:07.023Z,15.95
2022-09-10T22:23:36.737Z,15.85
2022-09-10T22:26:09.897Z,15.83
2022-09-10T22:28:37.281Z,15.73
2022-09-10T22:31:12.824Z,15.98
2022-09-10T22:33:41.529Z,15.90
2022-09-10T22:36:18.897Z,16.17
2022-09-10T22:38:54.148Z,15.74
2022-09-10T22:41:20.869Z,15.71
2022-09-10T22:43:47.453Z,15.61
2022-09-10T22:46:14.091Z,15.62
2022-09-10T22:48:42.629Z,15.61
2022-09-10T22:51:12.357Z,15.64
2022-09-10T22:53:41.294Z,15.73
2022-09-10T22:56:08.611Z,15.69
2022-09-10T22:58:35.643Z,15.49
2022-09-10T23:01:08.691Z,15.41
2022-09-10T23:03:36.385Z,15.51
2022-09-10T23:06:07.288Z,15.56
2022-09-10T23:08:35.379Z,15.44
2022-09-10T23:11:15.385Z,15.25
2022-09-10T23:13:43.622Z,15.31
2022-09-10T23:16:12.188Z,15.37
2022-09-10T23:18:39.912Z,15.11
2022-09-10T23:21:07.604Z,15.20
2022-09-10T23:23:34.970Z,15.17
2022-09-10T23:26:09.540Z,15.24
2022-09-10T23:28:37.285Z,15.12
2022-09-10T23:31:24.978Z,15.04
2022-09-10T23:33:55.360Z,14.99
2022-09-10T23:36:22.764Z,15.13
2022-09-10T23:38:49.341Z,14.98
2022-09-10T23:41:16.630Z,14.97
2022-09-10T23:43:44.086Z,15.20
2022-09-10T23:46:12.044Z,15.07
2022-09-10T23:48:40.019Z,14.98
2022-09-10T23:51:06.732Z,14.94
2022-09-10T23:53:33.733Z,15.00
2022-09-10T23:56:00.817Z,14.98
2022-09-10T23:58:27.362Z,14.92
